Time;durP1;ratioP1;P1;durP2;ratioP2;P2;SDS_P1;SDS_P2;PMS_P1;PMS_P2;Temp;Humidity;BMP_temperature;BMP_pressure;BME280_temperature;BME280_humidity;BME280_pressure;Samples;Min_cycle;Max_cycle;Signal;HPM_P1;HPM_P2
2021/08/23 00:01:28;;;;;;;8.07;5.17;;;15.70;99.90;;;;;;5025809;28;20264;-61
2021/08/23 00:03:57;;;;;;;7.23;5.03;;;15.70;99.90;;;;;;5025387;28;20239;-61
2021/08/23 00:06:26;;;;;;;6.80;4.83;;;15.70;99.90;;;;;;5025079;28;20258;-62
2021/08/23 00:08:54;;;;;;;9.37;5.57;;;15.70;99.90;;;;;;5025033;28;20256;-62
2021/08/23 00:11:23;;;;;;;8.33;5.63;;;15.80;99.90;;;;;;5016773;28;20283;-62
2021/08/23 00:13:51;;;;;;;6.80;5.47;;;15.80;99.90;;;;;;5026723;28;20236;-62
2021/08/23 00:16:19;;;;;;;7.27;5.57;;;15.90;99.90;;;;;;5025342;28;20283;-62
2021/08/23 00:18:47;;;;;;;10.97;6.50;;;15.80;99.90;;;;;;5029618;28;20263;-62
2021/08/23 00:21:21;;;;;;;7.23;5.70;;;15.80;99.90;;;;;;5029783;28;20707;-62
2021/08/23 00:23:53;;;;;;;12.00;6.97;;;15.80;99.90;;;;;;5025435;28;20688;-61
2021/08/23 00:26:22;;;;;;;11.50;6.50;;;15.80;99.90;;;;;;5021484;28;20699;-62
2021/08/23 00:28:51;;;;;;;8.60;5.83;;;15.70;99.90;;;;;;5027331;28;20271;-62
2021/08/23 00:31:19;;;;;;;11.73;6.63;;;15.70;99.90;;;;;;5015371;28;20260;-62
2021/08/23 00:33:47;;;;;;;9.23;6.60;;;15.70;99.90;;;;;;5018723;28;20248;-61
2021/08/23 00:36:15;;;;;;;10.40;7.40;;;15.80;99.90;;;;;;5024812;28;20236;-62
2021/08/23 00:38:44;;;;;;;9.30;6.53;;;15.70;99.90;;;;;;5020917;28;20244;-62
2021/08/23 00:41:13;;;;;;;9.20;7.27;;;15.60;99.90;;;;;;5021885;28;20289;-61
2021/08/23 00:43:41;;;;;;;9.37;7.50;;;15.60;99.90;;;;;;5052071;28;20674;-62
2021/08/23 00:46:10;;;;;;;11.03;7.90;;;15.60;99.90;;;;;;5056439;28;20690;-62
2021/08/23 00:48:38;;;;;;;12.67;8.00;;;15.60;99.90;;;;;;5051497;28;20692;-62
2021/08/23 00:51:08;;;;;;;11.10;7.00;;;15.60;99.90;;;;;;5050562;28;20293;-62
2021/08/23 00:53:36;;;;;;;10.63;7.80;;;15.60;99.90;;;;;;5049913;28;20240;-62
2021/08/23 00:56:04;;;;;;;12.30;7.20;;;15.60;99.90;;;;;;5051781;28;20321;-62
2021/08/23 00:58:34;;;;;;;10.60;7.00;;;15.60;99.90;;;;;;5055110;28;20722;-62
2021/08/23 01:01:07;;;;;;;9.27;6.93;;;15.60;99.90;;;;;;5055661;28;20259;-61
2021/08/23 01:03:40;;;;;;;8.13;6.43;;;15.60;99.90;;;;;;5051027;28;20259;-62
2021/08/23 01:06:10;;;;;;;9.93;6.20;;;15.60;99.90;;;;;;5055640;28;20235;-62
2021/08/23 01:08:40;;;;;;;9.13;6.27;;;15.50;99.90;;;;;;5049430;28;20239;-62
2021/08/23 01:11:10;;;;;;;8.43;6.30;;;15.50;99.90;;;;;;5058064;28;20334;-62
2021/08/23 01:13:44;;;;;;;9.13;6.43;;;15.40;99.90;;;;;;5055184;28;20682;-61
2021/08/23 01:16:12;;;;;;;7.20;5.70;;;15.40;99.90;;;;;;5057001;28;20665;-62
2021/08/23 01:18:41;;;;;;;8.00;5.33;;;15.40;99.90;;;;;;5060187;28;20227;-62
2021/08/23 01:21:12;;;;;;;8.23;5.70;;;15.40;99.90;;;;;;5057990;28;20259;-61
2021/08/23 01:23:45;;;;;;;6.83;6.20;;;15.40;99.90;;;;;;5058455;28;20233;-61
2021/08/23 01:26:17;;;;;;;10.00;6.87;;;15.40;99.90;;;;;;5054739;28;20757;-61
2021/08/23 01:28:58;;;;;;;8.03;5.97;;;15.50;99.90;;;;;;5061217;28;20248;-62
2021/08/23 01:31:36;;;;;;;9.43;6.70;;;15.40;99.90;;;;;;5056439;28;20289;-61
2021/08/23 01:34:07;;;;;;;8.10;5.97;;;15.40;99.90;;;;;;5035978;28;20765;-62
2021/08/23 01:36:35;;;;;;;8.30;6.20;;;15.40;99.90;;;;;;5044459;28;20237;-62
2021/08/23 01:39:04;;;;;;;9.13;6.00;;;15.50;99.90;;;;;;5044914;28;20302;-61
2021/08/23 01:41:32;;;;;;;9.90;6.43;;;15.40;99.90;;;;;;5044345;28;20228;-62
2021/08/23 01:44:01;;;;;;;7.57;5.60;;;15.50;99.90;;;;;;5033829;28;20287;-61
2021/08/23 01:46:30;;;;;;;9.77;6.17;;;15.50;99.90;;;;;;5045737;28;20232;-61
2021/08/23 01:48:59;;;;;;;9.23;6.73;;;15.40;99.90;;;;;;5041022;28;20259;-61
2021/08/23 01:51:28;;;;;;;15.73;6.97;;;15.40;99.90;;;;;;5041779;28;20245;-62
2021/08/23 01:53:57;;;;;;;11.10;6.90;;;15.40;99.90;;;;;;5040844;28;20268;-61
2021/08/23 01:56:25;;;;;;;8.63;6.20;;;15.40;99.90;;;;;;5046080;28;20720;-61
2021/08/23 01:58:53;;;;;;;10.83;6.30;;;15.40;99.90;;;;;;5041120;28;20247;-62
2021/08/23 02:01:21;;;;;;;6.10;5.37;;;15.40;99.90;;;;;;5026136;28;20719;-62
2021/08/23 02:03:50;;;;;;;7.37;5.00;;;15.40;99.90;;;;;;5022244;28;20221;-61
2021/08/23 02:06:18;;;;;;;8.30;5.37;;;15.40;99.90;;;;;;5014074;28;20242;-61
2021/08/23 02:08:48;;;;;;;7.43;4.33;;;15.40;99.90;;;;;;5015350;28;20641;-62
2021/08/23 02:11:16;;;;;;;8.97;4.30;;;15.30;99.90;;;;;;5020630;28;20232;-62
2021/08/23 02:13:44;;;;;;;5.47;3.83;;;15.30;99.90;;;;;;5020650;28;20244;-62
2021/08/23 02:16:13;;;;;;;4.50;3.20;;;15.30;99.90;;;;;;5024266;28;20708;-62
2021/08/23 02:18:41;;;;;;;7.13;3.20;;;15.30;99.90;;;;;;5018484;28;20237;-61
2021/08/23 02:21:09;;;;;;;7.70;3.10;;;15.40;99.90;;;;;;5024285;28;20230;-61
2021/08/23 02:23:37;;;;;;;5.83;3.07;;;15.40;99.90;;;;;;5021301;28;20241;-62
2021/08/23 02:26:07;;;;;;;5.00;3.27;;;15.30;99.90;;;;;;5025827;28;20232;-62
2021/08/23 02:28:35;;;;;;;6.53;3.40;;;15.30;99.90;;;;;;5018409;28;20260;-62
2021/08/23 02:31:03;;;;;;;5.60;2.90;;;15.30;99.90;;;;;;5038270;28;20253;-61
2021/08/23 02:33:32;;;;;;;6.97;3.20;;;15.30;99.90;;;;;;5056381;28;20233;-61
2021/08/23 02:36:00;;;;;;;4.50;3.00;;;15.40;99.90;;;;;;5053965;28;20223;-61
2021/08/23 02:38:28;;;;;;;6.63;3.20;;;15.30;99.90;;;;;;5056929;28;20239;-61
2021/08/23 02:40:56;;;;;;;5.07;2.83;;;15.30;99.90;;;;;;5054658;28;20241;-62
2021/08/23 02:43:26;;;;;;;5.47;2.50;;;15.30;99.90;;;;;;5047136;28;20281;-62
2021/08/23 02:45:54;;;;;;;3.73;2.47;;;15.20;99.90;;;;;;5042024;28;20271;-62
2021/08/23 02:48:22;;;;;;;4.90;3.00;;;15.20;99.90;;;;;;5045315;28;20293;-62
2021/08/23 02:50:50;;;;;;;10.50;3.20;;;15.20;99.90;;;;;;5040048;28;20232;-61
2021/08/23 02:53:18;;;;;;;4.00;2.30;;;15.10;99.90;;;;;;5046499;28;20626;-62
2021/08/23 02:55:46;;;;;;;4.60;2.60;;;15.20;99.90;;;;;;5041218;28;20231;-61
2021/08/23 02:58:14;;;;;;;6.90;2.67;;;15.10;99.90;;;;;;5042662;28;20784;-62
2021/08/23 03:00:44;;;;;;;4.60;2.67;;;15.00;99.90;;;;;;5042232;28;20228;-62
2021/08/23 03:03:12;;;;;;;10.17;3.07;;;15.00;99.90;;;;;;5027159;28;20237;-61
2021/08/23 03:05:42;;;;;;;4.43;2.53;;;15.00;99.90;;;;;;5029153;28;20260;-61
2021/08/23 03:08:10;;;;;;;8.67;3.00;;;14.90;99.90;;;;;;5014976;28;20287;-61
2021/08/23 03:10:38;;;;;;;4.43;2.60;;;14.90;99.90;;;;;;5020780;28;20232;-61
2021/08/23 03:13:06;;;;;;;4.27;2.87;;;14.90;99.90;;;;;;5024710;28;20281;-61
2021/08/23 03:15:34;;;;;;;4.47;3.10;;;14.90;99.90;;;;;;5020663;28;20247;-61
2021/08/23 03:18:04;;;;;;;3.57;3.07;;;14.90;99.90;;;;;;5016369;28;20366;-61
2021/08/23 03:20:32;;;;;;;7.87;3.10;;;14.90;99.90;;;;;;5025712;28;20323;-62
2021/08/23 03:23:00;;;;;;;5.20;3.17;;;14.80;99.90;;;;;;5020816;28;20267;-61
2021/08/23 03:25:28;;;;;;;8.73;3.10;;;14.80;99.90;;;;;;5015289;28;20240;-62
2021/08/23 03:27:56;;;;;;;6.03;3.30;;;14.80;99.90;;;;;;5023225;28;20275;-61
2021/08/23 03:30:24;;;;;;;8.10;3.23;;;14.80;99.90;;;;;;5021247;28;20717;-62
2021/08/23 03:32:53;;;;;;;9.33;3.40;;;14.80;99.90;;;;;;5021714;28;20233;-61
2021/08/23 03:35:23;;;;;;;5.97;3.10;;;14.80;99.90;;;;;;5017921;28;20587;-62
2021/08/23 03:37:51;;;;;;;5.33;3.63;;;14.70;99.90;;;;;;5018889;28;20661;-61
2021/08/23 03:40:19;;;;;;;5.60;3.00;;;14.70;99.90;;;;;;5023860;28;20220;-62
2021/08/23 03:42:48;;;;;;;4.03;2.70;;;14.70;99.90;;;;;;5014860;28;20316;-61
2021/08/23 03:45:16;;;;;;;7.77;3.30;;;14.70;99.90;;;;;;5022562;28;20246;-61
2021/08/23 03:47:44;;;;;;;6.57;3.87;;;14.70;99.90;;;;;;5033193;28;20592;-61
2021/08/23 03:50:12;;;;;;;8.30;4.00;;;14.60;99.90;;;;;;5042689;28;20232;-62
2021/08/23 03:52:41;;;;;;;6.63;4.13;;;14.60;99.90;;;;;;5029318;28;20716;-62
2021/08/23 03:55:10;;;;;;;4.10;3.70;;;14.60;99.90;;;;;;5029327;28;20264;-61
2021/08/23 03:57:39;;;;;;;8.70;4.30;;;14.60;99.90;;;;;;5025073;28;20243;-61
2021/08/23 04:00:09;;;;;;;5.43;4.20;;;14.60;99.90;;;;;;5030493;28;20639;-61
2021/08/23 04:02:38;;;;;;;7.97;4.50;;;14.50;99.90;;;;;;5022204;28;20237;-61
2021/08/23 04:05:08;;;;;;;6.30;4.20;;;14.50;99.90;;;;;;5030279;28;20243;-61
2021/08/23 04:07:36;;;;;;;8.40;5.17;;;14.50;99.90;;;;;;5024603;28;20241;-61
2021/08/23 04:10:06;;;;;;;8.17;5.13;;;14.50;99.90;;;;;;5025293;28;20252;-61
2021/08/23 04:12:34;;;;;;;5.80;4.73;;;14.60;99.90;;;;;;5025098;28;20244;-61
2021/08/23 04:15:03;;;;;;;7.80;4.77;;;14.40;99.90;;;;;;5023785;28;20247;-61
2021/08/23 04:17:32;;;;;;;9.40;5.47;;;14.40;99.90;;;;;;5023622;28;20268;-62
2021/08/23 04:20:01;;;;;;;8.00;5.47;;;14.50;99.90;;;;;;5027702;28;20251;-62
2021/08/23 04:22:29;;;;;;;8.57;5.17;;;14.40;99.90;;;;;;5026554;28;20246;-61
2021/08/23 04:24:57;;;;;;;8.07;5.23;;;14.40;99.90;;;;;;5029424;28;20228;-61
2021/08/23 04:27:27;;;;;;;7.37;4.47;;;14.40;99.90;;;;;;5026940;28;20239;-62
2021/08/23 04:29:55;;;;;;;8.67;5.17;;;14.30;99.90;;;;;;5027739;28;20305;-61
2021/08/23 04:32:24;;;;;;;8.30;5.50;;;14.30;99.90;;;;;;5025021;28;20233;-61
2021/08/23 04:34:52;;;;;;;7.10;4.80;;;14.30;99.90;;;;;;5014611;28;20229;-62
2021/08/23 04:37:20;;;;;;;9.00;4.67;;;14.50;99.90;;;;;;5029182;28;20225;-62
2021/08/23 04:39:48;;;;;;;9.13;5.00;;;14.40;99.90;;;;;;5027633;28;20464;-61
2021/08/23 04:42:17;;;;;;;7.93;5.33;;;14.40;99.90;;;;;;5025813;28;20228;-61
2021/08/23 04:44:46;;;;;;;8.77;6.00;;;14.40;99.90;;;;;;5026746;28;21246;-61
2021/08/23 04:47:14;;;;;;;10.23;5.50;;;14.30;99.90;;;;;;5029101;28;20590;-61
2021/08/23 04:49:43;;;;;;;11.10;6.03;;;14.30;99.90;;;;;;5021002;28;20241;-61
2021/08/23 04:52:11;;;;;;;10.80;5.63;;;14.30;99.90;;;;;;5026047;28;20311;-62
2021/08/23 04:54:39;;;;;;;7.80;5.70;;;14.30;99.90;;;;;;5021925;28;20233;-62
2021/08/23 04:57:07;;;;;;;10.77;5.53;;;14.40;99.90;;;;;;5028463;28;20236;-62
2021/08/23 04:59:36;;;;;;;8.80;5.00;;;14.30;99.90;;;;;;5023564;28;20237;-62
2021/08/23 05:02:05;;;;;;;7.83;4.77;;;14.40;99.90;;;;;;5026075;28;20256;-61
2021/08/23 05:04:34;;;;;;;8.03;4.90;;;14.30;99.90;;;;;;5016133;28;20247;-61
2021/08/23 05:07:02;;;;;;;9.43;4.40;;;14.40;99.90;;;;;;5027123;28;20239;-61
2021/08/23 05:09:30;;;;;;;8.17;4.83;;;14.40;99.90;;;;;;5012085;28;20233;-61
2021/08/23 05:11:58;;;;;;;6.77;4.27;;;14.40;99.90;;;;;;5020508;28;20237;-61
2021/08/23 05:14:26;;;;;;;8.50;4.80;;;14.30;99.90;;;;;;5022296;28;20713;-61
2021/08/23 05:16:54;;;;;;;7.77;3.70;;;14.40;99.90;;;;;;5023764;28;20770;-61
2021/08/23 05:19:23;;;;;;;6.83;3.83;;;14.40;99.90;;;;;;5021232;28;20229;-62
2021/08/23 05:21:51;;;;;;;6.80;3.90;;;14.50;99.90;;;;;;5016608;28;20383;-62
2021/08/23 05:24:19;;;;;;;7.40;3.60;;;14.40;99.90;;;;;;5013777;28;20577;-61
2021/08/23 05:26:48;;;;;;;6.10;3.47;;;14.60;99.90;;;;;;5019528;28;20664;-61
2021/08/23 05:29:17;;;;;;;5.73;3.00;;;14.60;99.90;;;;;;5025472;28;20738;-62
2021/08/23 05:31:45;;;;;;;5.47;3.60;;;14.60;99.90;;;;;;5024086;28;20723;-62
2021/08/23 05:34:13;;;;;;;5.97;3.20;;;14.60;99.90;;;;;;5019691;28;20236;-62
2021/08/23 05:36:42;;;;;;;5.37;3.33;;;14.70;99.90;;;;;;5020768;28;20246;-61
2021/08/23 05:39:10;;;;;;;4.17;3.43;;;14.80;99.90;;;;;;5018405;28;20244;-62
2021/08/23 05:41:38;;;;;;;4.30;3.33;;;14.80;99.90;;;;;;5050620;28;20270;-62
2021/08/23 05:44:07;;;;;;;5.20;3.30;;;14.90;99.90;;;;;;5050778;28;20238;-61
2021/08/23 05:46:35;;;;;;;6.00;3.37;;;14.90;99.90;;;;;;5051123;28;20624;-62
2021/08/23 05:49:03;;;;;;;5.40;3.50;;;14.90;99.90;;;;;;5048684;28;20242;-62
2021/08/23 05:51:31;;;;;;;5.30;3.00;;;15.00;99.90;;;;;;5053665;28;20227;-62
2021/08/23 05:54:00;;;;;;;6.50;2.93;;;15.10;99.90;;;;;;5048374;28;20235;-62
2021/08/23 05:56:28;;;;;;;5.53;3.47;;;15.10;99.90;;;;;;5047069;28;20239;-62
2021/08/23 05:58:56;;;;;;;5.87;3.20;;;15.30;99.90;;;;;;5048193;28;20687;-62
2021/08/23 06:01:25;;;;;;;4.57;3.00;;;15.40;99.90;;;;;;5052339;28;20239;-62
2021/08/23 06:03:53;;;;;;;5.30;2.90;;;15.40;99.90;;;;;;5049176;28;20265;-62
2021/08/23 06:06:22;;;;;;;4.53;2.90;;;15.50;99.90;;;;;;5057316;28;20232;-62
2021/08/23 06:08:50;;;;;;;7.77;3.03;;;15.60;99.90;;;;;;5058016;28;20239;-62
2021/08/23 06:11:19;;;;;;;9.10;3.13;;;15.70;99.90;;;;;;5050759;28;20223;-61
2021/08/23 06:13:48;;;;;;;5.20;3.10;;;15.90;99.90;;;;;;5055425;28;20243;-62
2021/08/23 06:16:18;;;;;;;4.83;2.70;;;16.10;99.90;;;;;;5048885;28;20236;-62
2021/08/23 06:18:47;;;;;;;5.57;3.03;;;16.20;99.90;;;;;;5063372;28;20235;-61
2021/08/23 06:21:15;;;;;;;4.77;2.87;;;16.10;99.90;;;;;;5049471;28;20699;-62
2021/08/23 06:23:43;;;;;;;4.40;3.00;;;16.20;99.90;;;;;;5048537;28;20794;-62
2021/08/23 06:26:11;;;;;;;5.47;2.87;;;16.40;99.90;;;;;;5048334;28;20243;-62
2021/08/23 06:28:41;;;;;;;5.33;3.00;;;16.60;99.90;;;;;;5047784;28;20246;-62
2021/08/23 06:31:09;;;;;;;5.97;2.83;;;16.60;99.90;;;;;;5048798;28;20254;-62
2021/08/23 06:33:37;;;;;;;4.50;2.60;;;16.60;99.90;;;;;;5047623;28;20250;-62
2021/08/23 06:36:06;;;;;;;2.83;2.50;;;16.70;99.90;;;;;;5054089;28;20586;-61
2021/08/23 06:38:34;;;;;;;6.93;3.07;;;16.90;99.90;;;;;;5046753;28;20240;-61
2021/08/23 06:41:02;;;;;;;4.77;2.87;;;17.20;99.90;;;;;;5050865;28;20245;-61
2021/08/23 06:43:30;;;;;;;5.73;2.60;;;17.30;99.90;;;;;;5050913;28;20683;-62
2021/08/23 06:46:00;;;;;;;4.57;2.40;;;17.40;99.90;;;;;;5050295;28;20496;-62
2021/08/23 06:48:28;;;;;;;4.13;2.53;;;17.60;99.90;;;;;;5052447;28;20225;-61
2021/08/23 06:50:56;;;;;;;6.53;2.47;;;17.80;99.90;;;;;;5043228;28;20239;-62
2021/08/23 06:53:24;;;;;;;5.27;2.70;;;17.90;99.90;;;;;;5044901;28;20247;-62
2021/08/23 06:55:52;;;;;;;4.93;2.53;;;18.10;99.90;;;;;;5045779;28;20246;-61
2021/08/23 06:58:20;;;;;;;4.23;2.50;;;18.30;99.90;;;;;;5043773;28;20798;-62
2021/08/23 07:00:51;;;;;;;5.53;2.13;;;18.40;99.90;;;;;;5045768;28;20242;-61
2021/08/23 07:03:20;;;;;;;4.40;2.40;;;18.50;99.90;;;;;;5044321;28;20239;-62
2021/08/23 07:05:48;;;;;;;4.80;2.53;;;18.50;99.90;;;;;;5043625;28;20227;-61
2021/08/23 07:08:17;;;;;;;4.63;2.33;;;18.60;99.90;;;;;;5043977;28;20263;-62
2021/08/23 07:10:45;;;;;;;6.47;2.20;;;18.60;99.90;;;;;;5044221;28;20239;-62
2021/08/23 07:13:13;;;;;;;5.73;2.07;;;18.70;99.90;;;;;;5015507;28;20689;-62
2021/08/23 07:15:41;;;;;;;3.83;2.47;;;18.70;99.90;;;;;;5018955;28;20805;-62
2021/08/23 07:18:13;;;;;;;3.37;1.80;;;18.80;99.90;;;;;;5006808;28;20724;-61
2021/08/23 07:20:42;;;;;;;4.10;1.90;;;19.00;99.90;;;;;;5006165;28;20327;-62
2021/08/23 07:23:10;;;;;;;3.47;1.80;;;19.30;99.90;;;;;;5005439;28;20242;-62
2021/08/23 07:25:38;;;;;;;4.23;2.23;;;19.30;99.90;;;;;;5004538;28;20245;-62
2021/08/23 07:28:07;;;;;;;3.00;1.77;;;19.40;99.90;;;;;;5007866;28;20642;-62
2021/08/23 07:30:35;;;;;;;3.50;1.80;;;19.30;99.90;;;;;;5006429;28;20237;-62
2021/08/23 07:33:06;;;;;;;5.27;1.90;;;19.30;99.90;;;;;;5007863;28;20769;-62
2021/08/23 07:35:34;;;;;;;4.07;1.80;;;19.30;99.90;;;;;;5009871;28;21121;-62
2021/08/23 07:38:04;;;;;;;4.87;1.70;;;19.20;99.90;;;;;;5006255;28;20242;-62
2021/08/23 07:40:32;;;;;;;3.13;2.00;;;19.00;99.90;;;;;;5004763;28;20607;-61
2021/08/23 07:43:03;;;;;;;3.83;1.93;;;19.00;99.90;;;;;;5005777;28;20412;-62
2021/08/23 07:45:35;;;;;;;4.07;2.03;;;19.20;99.90;;;;;;5005463;28;20316;-62
2021/08/23 07:48:04;;;;;;;4.03;1.73;;;19.40;99.90;;;;;;5007712;28;20245;-61
2021/08/23 07:50:32;;;;;;;5.67;2.10;;;19.60;99.90;;;;;;5006155;28;21717;-62
2021/08/23 07:53:00;;;;;;;6.07;2.17;;;19.80;99.90;;;;;;5005770;28;20248;-61
2021/08/23 07:55:30;;;;;;;3.57;2.10;;;19.80;99.90;;;;;;5006028;28;20611;-61
2021/08/23 07:57:58;;;;;;;4.13;1.50;;;20.00;99.90;;;;;;5007473;28;20236;-61
2021/08/23 08:00:26;;;;;;;3.53;1.70;;;20.20;99.90;;;;;;5003712;28;20312;-61
2021/08/23 08:02:54;;;;;;;3.53;1.80;;;20.60;99.90;;;;;;5006613;28;20734;-61
2021/08/23 08:05:22;;;;;;;3.77;1.60;;;20.40;99.90;;;;;;5007854;28;20323;-61
2021/08/23 08:07:54;;;;;;;3.43;1.70;;;20.30;99.90;;;;;;5005823;28;20248;-61
2021/08/23 08:10:22;;;;;;;3.10;1.60;;;20.50;99.90;;;;;;5006050;28;20702;-60
2021/08/23 08:12:52;;;;;;;3.50;1.50;;;20.80;99.90;;;;;;5006806;28;20278;-61
2021/08/23 08:15:20;;;;;;;2.93;1.60;;;20.70;99.90;;;;;;5003746;28;20310;-61
2021/08/23 08:17:48;;;;;;;5.60;1.80;;;20.70;99.90;;;;;;5000912;28;20233;-60
2021/08/23 08:20:17;;;;;;;2.73;1.80;;;20.70;99.90;;;;;;5014735;28;20242;-61
2021/08/23 08:22:45;;;;;;;2.97;1.50;;;20.70;99.90;;;;;;5005647;28;20719;-61
2021/08/23 08:25:14;;;;;;;3.67;1.80;;;20.90;99.90;;;;;;5004233;28;20354;-61
2021/08/23 08:27:42;;;;;;;2.70;1.53;;;21.00;99.90;;;;;;5003075;28;20244;-62
2021/08/23 08:30:16;;;;;;;2.20;1.40;;;20.90;99.90;;;;;;5004839;28;20315;-61
2021/08/23 08:32:45;;;;;;;3.20;1.60;;;20.90;99.90;;;;;;5003054;28;20360;-61
2021/08/23 08:35:13;;;;;;;3.27;1.53;;;21.30;99.90;;;;;;5008957;28;20744;-60
2021/08/23 08:37:41;;;;;;;4.17;1.73;;;21.40;99.90;;;;;;5010244;28;20314;-61
2021/08/23 08:40:11;;;;;;;2.43;1.40;;;21.40;99.90;;;;;;5013134;28;20703;-61
2021/08/23 08:42:43;;;;;;;3.50;1.50;;;21.40;99.90;;;;;;5018491;28;20330;-60
2021/08/23 08:45:14;;;;;;;2.67;1.50;;;21.50;99.90;;;;;;5026208;28;20244;-61
2021/08/23 08:47:43;;;;;;;2.03;1.23;;;21.80;99.90;;;;;;5025930;28;20268;-61
2021/08/23 08:50:14;;;;;;;4.00;1.40;;;21.90;99.90;;;;;;5020923;28;20368;-61
2021/08/23 08:52:45;;;;;;;4.33;1.60;;;22.00;99.90;;;;;;5024227;28;20653;-61
2021/08/23 08:55:13;;;;;;;2.43;1.20;;;21.90;99.90;;;;;;5024360;28;20263;-61
2021/08/23 08:57:43;;;;;;;3.33;1.47;;;22.10;99.90;;;;;;5025225;28;20734;-60
2021/08/23 09:00:14;;;;;;;1.83;1.03;;;22.20;99.90;;;;;;5022879;28;20236;-61
2021/08/23 09:02:54;;;;;;;4.03;1.57;;;22.40;99.90;;;;;;5022290;28;20245;-61
2021/08/23 09:05:22;;;;;;;2.30;1.30;;;22.40;99.90;;;;;;5024227;28;20658;-61
2021/08/23 09:07:52;;;;;;;3.73;1.53;;;22.50;99.90;;;;;;5023994;28;20322;-61
2021/08/23 09:10:23;;;;;;;4.40;1.50;;;22.40;99.90;;;;;;5017247;28;20301;-61
2021/08/23 09:13:02;;;;;;;2.93;1.50;;;22.10;99.90;;;;;;5021885;28;20236;-61
2021/08/23 09:15:32;;;;;;;3.00;1.27;;;22.20;99.90;;;;;;5019870;28;20247;-60
2021/08/23 09:18:05;;;;;;;1.63;1.10;;;22.40;99.90;;;;;;5016389;28;20245;-61
2021/08/23 09:20:34;;;;;;;2.10;1.40;;;22.50;99.90;;;;;;5009379;28;20343;-61
2021/08/23 09:23:11;;;;;;;3.53;1.40;;;22.70;99.90;;;;;;5016970;28;20734;-61
2021/08/23 09:25:39;;;;;;;3.67;1.30;;;22.60;99.90;;;;;;5011633;28;20271;-61
2021/08/23 09:28:09;;;;;;;3.40;1.30;;;22.70;99.90;;;;;;5009196;28;20252;-61
2021/08/23 09:30:40;;;;;;;1.87;1.10;;;22.70;99.90;;;;;;4999916;28;20741;-61
2021/08/23 09:33:10;;;;;;;2.03;0.90;;;22.70;99.90;;;;;;4990205;28;20796;-61
2021/08/23 09:35:39;;;;;;;2.57;1.30;;;22.60;99.90;;;;;;4993225;28;21133;-61
2021/08/23 09:38:11;;;;;;;2.40;1.20;;;22.50;99.90;;;;;;4993235;28;20825;-61
2021/08/23 09:40:39;;;;;;;1.67;1.10;;;22.50;99.90;;;;;;4992117;28;20245;-61
2021/08/23 09:43:11;;;;;;;2.87;1.40;;;22.50;99.90;;;;;;4993430;28;20263;-62
2021/08/23 09:45:44;;;;;;;2.30;1.00;;;22.60;99.90;;;;;;4995756;28;20244;-61
2021/08/23 09:48:12;;;;;;;2.60;1.20;;;22.40;99.90;;;;;;4992249;28;20275;-61
2021/08/23 09:50:42;;;;;;;3.67;1.67;;;22.70;99.90;;;;;;4992646;28;21320;-61
2021/08/23 09:53:12;;;;;;;2.60;1.40;;;22.70;99.90;;;;;;4992235;28;20397;-61
2021/08/23 09:55:44;;;;;;;2.60;1.10;;;22.80;99.90;;;;;;4993635;28;20255;-61
2021/08/23 09:58:13;;;;;;;2.40;1.37;;;23.10;99.90;;;;;;4993353;28;20239;-61
2021/08/23 10:00:44;;;;;;;2.10;1.20;;;23.20;99.90;;;;;;4997154;28;20274;-61
2021/08/23 10:03:16;;;;;;;2.73;1.57;;;23.00;99.90;;;;;;5007972;28;20240;-62
2021/08/23 10:05:45;;;;;;;3.10;1.60;;;23.20;99.90;;;;;;5045606;28;20243;-60
2021/08/23 10:08:17;;;;;;;3.77;1.40;;;22.90;99.90;;;;;;5043935;28;21138;-61
2021/08/23 10:10:45;;;;;;;3.37;1.57;;;23.20;99.90;;;;;;5041954;28;20327;-61
2021/08/23 10:13:14;;;;;;;3.50;1.57;;;23.10;99.90;;;;;;5016236;28;21346;-61
2021/08/23 10:15:44;;;;;;;2.77;1.37;;;23.30;99.90;;;;;;5025107;28;20547;-62
2021/08/23 10:18:12;;;;;;;2.57;1.40;;;23.60;99.90;;;;;;5026557;28;20546;-62
2021/08/23 10:20:40;;;;;;;3.07;1.70;;;23.60;99.90;;;;;;5025522;28;20244;-61
2021/08/23 10:23:09;;;;;;;6.33;1.60;;;23.90;99.90;;;;;;5027258;28;20328;-60
2021/08/23 10:25:38;;;;;;;4.23;1.90;;;24.30;99.90;;;;;;5025752;28;20763;-61
2021/08/23 10:28:08;;;;;;;2.93;1.80;;;24.40;99.90;;;;;;5028460;28;20242;-61
2021/08/23 10:30:38;;;;;;;3.33;1.60;;;24.10;99.90;;;;;;5025888;28;20250;-61
2021/08/23 10:33:13;;;;;;;3.33;1.83;;;24.20;99.90;;;;;;5024401;28;20547;-61
2021/08/23 10:35:50;;;;;;;4.80;2.20;;;24.10;99.90;;;;;;5025010;28;20263;-61
2021/08/23 10:38:20;;;;;;;3.13;1.80;;;23.90;99.90;;;;;;5026193;28;20642;-61
2021/08/23 10:40:49;;;;;;;2.27;1.73;;;24.10;99.90;;;;;;5024728;28;20243;-61
2021/08/23 10:43:19;;;;;;;2.37;1.57;;;24.40;99.90;;;;;;5025718;28;20477;-62
2021/08/23 10:45:49;;;;;;;5.10;2.00;;;24.40;99.90;;;;;;5025991;28;20251;-61
2021/08/23 10:48:21;;;;;;;2.73;1.90;;;24.60;99.90;;;;;;5026288;28;20243;-62
2021/08/23 10:51:07;;;;;;;3.17;1.80;;;25.10;99.90;;;;;;5023832;28;20379;-61
2021/08/23 10:53:39;;;;;;;4.00;1.40;;;24.70;99.90;;;;;;5026266;28;20375;-62
2021/08/23 10:56:14;;;;;;;2.53;1.90;;;24.30;99.90;;;;;;5025070;28;20330;-61
2021/08/23 10:58:44;;;;;;;3.10;1.80;;;23.90;99.90;;;;;;5026638;28;20775;-61
2021/08/23 11:01:21;;;;;;;3.07;1.93;;;23.90;99.90;;;;;;5032440;28;20233;-62
2021/08/23 11:04:02;;;;;;;3.30;1.50;;;23.80;99.90;;;;;;5033156;28;20590;-62
2021/08/23 11:06:30;;;;;;;5.97;1.90;;;23.80;99.90;;;;;;5033792;28;20248;-62
2021/08/23 11:09:07;;;;;;;4.07;1.90;;;23.80;99.90;;;;;;5034196;28;20588;-61
2021/08/23 11:11:39;;;;;;;3.30;1.77;;;23.60;99.90;;;;;;5032516;28;20244;-61
2021/08/23 11:14:17;;;;;;;3.53;2.00;;;23.50;99.90;;;;;;5033754;28;20899;-61
2021/08/23 11:16:52;;;;;;;3.30;1.50;;;23.80;99.90;;;;;;5034241;28;20350;-62
2021/08/23 11:19:22;;;;;;;3.13;1.50;;;24.10;99.90;;;;;;5033634;28;20239;-62
2021/08/23 11:21:56;;;;;;;4.37;1.60;;;24.50;99.90;;;;;;5031086;28;20237;-62
2021/08/23 11:24:27;;;;;;;4.40;1.60;;;24.50;99.90;;;;;;5023841;28;20265;-61
2021/08/23 11:27:00;;;;;;;2.00;1.33;;;24.40;99.90;;;;;;5034082;28;20275;-62
2021/08/23 11:29:28;;;;;;;2.60;1.70;;;24.10;99.90;;;;;;5033449;28;20239;-61
2021/08/23 11:31:57;;;;;;;1.80;1.57;;;24.10;99.90;;;;;;5035397;28;20811;-61
2021/08/23 11:34:27;;;;;;;2.20;1.30;;;24.10;99.90;;;;;;5036172;28;20262;-61
2021/08/23 11:37:02;;;;;;;3.07;1.77;;;23.70;99.90;;;;;;5036351;28;20710;-61
2021/08/23 11:39:31;;;;;;;3.00;1.33;;;23.50;99.90;;;;;;5035557;28;20702;-61
2021/08/23 11:42:00;;;;;;;2.53;1.60;;;23.40;99.90;;;;;;5035573;28;20239;-62
2021/08/23 11:44:28;;;;;;;2.30;1.60;;;23.50;99.90;;;;;;5035720;28;20231;-62
2021/08/23 11:46:58;;;;;;;3.40;1.30;;;23.70;99.90;;;;;;5023528;28;20235;-62
2021/08/23 11:49:30;;;;;;;1.63;1.30;;;23.80;99.90;;;;;;5007945;28;20317;-63
2021/08/23 11:51:58;;;;;;;3.00;1.73;;;23.20;99.90;;;;;;5005357;28;20240;-62
2021/08/23 11:54:26;;;;;;;2.83;1.60;;;23.10;99.90;;;;;;5008462;28;20646;-63
2021/08/23 11:57:05;;;;;;;1.63;1.40;;;23.40;99.90;;;;;;5007496;28;20710;-62
2021/08/23 11:59:33;;;;;;;3.23;1.50;;;23.50;99.90;;;;;;5007132;28;20343;-63
2021/08/23 12:02:10;;;;;;;3.23;1.63;;;23.20;99.90;;;;;;5006615;28;20367;-62
2021/08/23 12:04:40;;;;;;;2.97;1.30;;;23.00;99.90;;;;;;5007163;28;21085;-63
2021/08/23 12:07:08;;;;;;;3.23;1.63;;;22.80;99.90;;;;;;5006605;28;20234;-63
2021/08/23 12:09:36;;;;;;;2.13;1.40;;;22.80;99.90;;;;;;5010145;28;21782;-63
2021/08/23 12:12:05;;;;;;;1.90;1.40;;;22.80;99.90;;;;;;5000178;28;20245;-63
2021/08/23 12:14:33;;;;;;;1.93;1.30;;;22.90;99.90;;;;;;5010691;28;21062;-62
2021/08/23 12:17:07;;;;;;;2.70;1.60;;;23.00;99.90;;;;;;5013789;28;20236;-63
2021/08/23 12:19:35;;;;;;;1.50;1.10;;;23.00;99.90;;;;;;5012395;28;20317;-63
2021/08/23 12:22:06;;;;;;;2.80;1.60;;;23.00;99.90;;;;;;5008971;28;20237;-62
2021/08/23 12:24:34;;;;;;;2.57;1.23;;;22.90;99.90;;;;;;5013757;28;20256;-62
2021/08/23 12:27:03;;;;;;;2.47;1.30;;;22.80;99.90;;;;;;5013117;28;20236;-63
2021/08/23 12:29:36;;;;;;;1.77;1.30;;;22.90;99.90;;;;;;5012104;28;20721;-62
2021/08/23 12:32:08;;;;;;;1.70;1.33;;;22.80;99.90;;;;;;5014277;28;20303;-62
2021/08/23 12:34:40;;;;;;;2.23;1.20;;;22.90;99.90;;;;;;5014409;28;20250;-62
2021/08/23 12:37:10;;;;;;;1.70;1.40;;;23.00;99.90;;;;;;5011670;28;20246;-62
2021/08/23 12:39:39;;;;;;;2.80;1.40;;;23.00;99.90;;;;;;5013845;28;20256;-63
2021/08/23 12:42:09;;;;;;;1.40;1.10;;;23.00;99.90;;;;;;5013180;28;20241;-62
2021/08/23 12:44:38;;;;;;;1.33;1.20;;;23.00;99.90;;;;;;5013531;28;20248;-63
2021/08/23 12:47:07;;;;;;;1.93;1.27;;;22.90;99.90;;;;;;5013427;28;20244;-63
2021/08/23 12:49:36;;;;;;;2.73;1.20;;;22.80;99.90;;;;;;5028837;28;20800;-62
2021/08/23 12:52:05;;;;;;;1.83;1.20;;;22.80;99.90;;;;;;5012244;28;20707;-62
2021/08/23 12:54:34;;;;;;;1.87;1.20;;;22.70;99.90;;;;;;5012706;28;20243;-62
2021/08/23 12:57:02;;;;;;;2.10;1.23;;;22.60;99.90;;;;;;5015460;28;20255;-62